Time;durP1;ratioP1;P1;durP2;ratioP2;P2;SDS_P1;SDS_P2;PMS_P1;PMS_P2;Temp;Humidity;BMP_temperature;BMP_pressure;BME280_temperature;BME280_humidity;BME280_pressure;Samples;Min_cycle;Max_cycle;Signal;HPM_P1;HPM_P2
2021/10/21 00:00:21;;;;;;;3.80;3.50;;;;;;;;;;7366370;19;162172;-16
2021/10/21 08:14:02;;;;;;;0.55;0.55;;;;;;;;;;7368609;19;132439;-14
2021/10/21 08:16:34;;;;;;;0.80;0.80;;;;;;;;;;7364729;19;153669;-13
2021/10/21 08:19:06;;;;;;;0.60;0.60;;;;;;;;;;7363992;19;162072;-12
2021/10/21 08:21:38;;;;;;;0.63;0.63;;;;;;;;;;7363728;19;162445;-14
2021/10/21 08:24:10;;;;;;;0.70;0.50;;;;;;;;;;7364346;19;153863;-13
2021/10/21 08:26:41;;;;;;;0.60;0.60;;;;;;;;;;7364287;19;153400;-14
2021/10/21 08:29:15;;;;;;;0.50;0.50;;;;;;;;;;7364014;19;161821;-14
2021/10/21 08:31:47;;;;;;;0.50;0.50;;;;;;;;;;7363862;19;162383;-12
2021/10/21 08:34:18;;;;;;;0.60;0.60;;;;;;;;;;7364313;19;153858;-12
2021/10/21 08:36:49;;;;;;;0.50;0.50;;;;;;;;;;7363096;19;153490;-11
2021/10/21 08:39:20;;;;;;;0.52;0.52;;;;;;;;;;7367491;19;162215;-14
2021/10/21 08:41:52;;;;;;;0.60;0.60;;;;;;;;;;7361974;19;162584;-16
2021/10/21 08:44:27;;;;;;;0.35;0.35;;;;;;;;;;7360399;19;154460;-15
2021/10/21 08:47:00;;;;;;;0.50;0.50;;;;;;;;;;7363656;19;153732;-14
2021/10/21 08:49:32;;;;;;;0.60;0.60;;;;;;;;;;7363938;19;161603;-13
2021/10/21 08:52:03;;;;;;;0.73;0.73;;;;;;;;;;7363761;19;162344;-13
2021/10/21 08:54:35;;;;;;;0.73;0.70;;;;;;;;;;7363470;19;154096;-16
2021/10/21 08:57:06;;;;;;;0.60;0.60;;;;;;;;;;7362183;19;153479;-16
2021/10/21 08:59:40;;;;;;;0.68;0.60;;;;;;;;;;7358966;19;161953;-15
2021/10/21 09:02:17;;;;;;;0.70;0.70;;;;;;;;;;7361649;19;162450;-12
2021/10/21 09:10:18;;;;;;;0.75;0.75;;;;;;;;;;7367164;19;161939;-13
2021/10/21 09:12:50;;;;;;;0.80;0.80;;;;;;;;;;7362222;19;162351;-16
2021/10/21 09:15:26;;;;;;;0.70;0.70;;;;;;;;;;7335502;19;154111;-15
2021/10/21 09:17:57;;;;;;;0.90;0.90;;;;;;;;;;7337893;19;153504;-14
2021/10/21 09:20:38;;;;;;;0.90;0.90;;;;;;;;;;7334108;19;162217;-16
2021/10/21 09:23:11;;;;;;;0.80;0.80;;;;;;;;;;7332716;19;162441;-13
2021/10/21 09:25:43;;;;;;;0.75;0.75;;;;;;;;;;7334281;19;153939;-13
2021/10/21 09:28:24;;;;;;;0.70;0.70;;;;;;;;;;7334510;19;153537;-16
2021/10/21 09:31:05;;;;;;;0.60;0.60;;;;;;;;;;7336833;19;161966;-15
2021/10/21 09:33:48;;;;;;;0.70;0.70;;;;;;;;;;7336808;19;162525;-14
2021/10/21 09:36:24;;;;;;;0.60;0.60;;;;;;;;;;7336530;19;154095;-14
2021/10/21 09:38:57;;;;;;;0.60;0.60;;;;;;;;;;7337259;19;153665;-12
2021/10/21 09:41:34;;;;;;;0.70;0.70;;;;;;;;;;7336441;19;161887;-11
2021/10/21 09:44:29;;;;;;;0.60;0.60;;;;;;;;;;7334911;19;162689;-15
2021/10/21 09:47:17;;;;;;;0.63;0.63;;;;;;;;;;7337440;19;153901;-14
2021/10/21 09:49:56;;;;;;;0.50;0.50;;;;;;;;;;7335886;19;153704;-13
2021/10/21 09:52:27;;;;;;;0.47;0.47;;;;;;;;;;7334898;19;161893;-13
2021/10/21 09:54:59;;;;;;;0.40;0.40;;;;;;;;;;7334702;19;163090;-13
2021/10/21 09:57:32;;;;;;;0.50;0.50;;;;;;;;;;7336789;19;153966;-15
2021/10/21 10:00:15;;;;;;;0.60;0.60;;;;;;;;;;7336232;19;153633;-12
2021/10/21 10:02:49;;;;;;;;;;;;;;;;;;7334524;19;161823;-16
2021/10/21 10:05:20;;;;;;;0.40;0.40;;;;;;;;;;7335941;19;162508;-13
2021/10/21 10:07:52;;;;;;;0.83;0.70;;;;;;;;;;7335853;19;154251;-13
2021/10/21 10:10:23;;;;;;;0.50;0.50;;;;;;;;;;7334347;19;153571;-13
2021/10/21 10:12:56;;;;;;;0.47;0.47;;;;;;;;;;7330452;19;161873;-16
2021/10/21 10:15:27;;;;;;;0.47;0.47;;;;;;;;;;7331227;19;162372;-15
2021/10/21 10:18:01;;;;;;;0.63;0.40;;;;;;;;;;7332375;19;153930;-13
2021/10/21 10:20:33;;;;;;;0.57;0.57;;;;;;;;;;7332493;19;153552;-15
2021/10/21 10:23:07;;;;;;;0.57;0.57;;;;;;;;;;7331324;19;161972;-17
2021/10/21 10:25:46;;;;;;;0.63;0.52;;;;;;;;;;7329299;19;162425;-17
2021/10/21 10:28:19;;;;;;;0.50;0.50;;;;;;;;;;7332147;19;153931;-16
2021/10/21 10:30:51;;;;;;;0.50;0.50;;;;;;;;;;7332042;19;153778;-14
2021/10/21 10:33:44;;;;;;;0.60;0.60;;;;;;;;;;7331587;19;161852;-14
2021/10/21 10:36:30;;;;;;;0.60;0.60;;;;;;;;;;7331812;19;162332;-14
2021/10/21 10:39:03;;;;;;;0.50;0.50;;;;;;;;;;7332404;19;154078;-15
2021/10/21 10:41:53;;;;;;;0.57;0.57;;;;;;;;;;7331977;19;153705;-14
2021/10/21 10:44:54;;;;;;;1.30;0.63;;;;;;;;;;7333544;19;162015;-14
2021/10/21 10:47:43;;;;;;;0.52;0.52;;;;;;;;;;7328935;19;162675;-16
2021/10/21 10:50:54;;;;;;;0.65;0.65;;;;;;;;;;7329285;19;153899;-14
2021/10/21 10:53:50;;;;;;;1.23;0.50;;;;;;;;;;7331204;19;153947;-14
2021/10/21 10:56:56;;;;;;;0.50;0.50;;;;;;;;;;7331161;19;161733;-15
2021/10/21 10:59:35;;;;;;;1.52;0.57;;;;;;;;;;7329630;19;162790;-14
2021/10/21 11:02:34;;;;;;;1.27;0.43;;;;;;;;;;7332006;19;154259;-15
2021/10/21 11:05:07;;;;;;;0.68;0.65;;;;;;;;;;7331886;19;153900;-17
2021/10/21 11:07:53;;;;;;;0.50;0.50;;;;;;;;;;7334203;19;161884;-12
2021/10/21 11:10:44;;;;;;;0.60;0.60;;;;;;;;;;7331993;19;162659;-16
2021/10/21 11:13:42;;;;;;;0.68;0.45;;;;;;;;;;7332422;19;154086;-18
2021/10/21 11:16:47;;;;;;;0.75;0.55;;;;;;;;;;7333708;19;153500;-14
2021/10/21 11:19:56;;;;;;;0.60;0.60;;;;;;;;;;7329646;19;162180;-15
2021/10/21 11:22:48;;;;;;;0.40;0.40;;;;;;;;;;7332165;19;162615;-16
2021/10/21 11:25:28;;;;;;;0.40;0.40;;;;;;;;;;7329574;19;154079;-14
2021/10/21 11:28:00;;;;;;;0.40;0.40;;;;;;;;;;7333616;19;153566;-14
2021/10/21 11:30:33;;;;;;;0.60;0.55;;;;;;;;;;7331226;19;161963;-14
2021/10/21 11:33:10;;;;;;;0.40;0.40;;;;;;;;;;7332923;19;162369;-14
2021/10/21 11:35:43;;;;;;;0.57;0.57;;;;;;;;;;7333308;19;154044;-14
2021/10/21 11:38:15;;;;;;;1.75;0.63;;;;;;;;;;7332874;19;153657;-17
2021/10/21 11:40:51;;;;;;;0.63;0.50;;;;;;;;;;7332562;19;161838;-15
2021/10/21 11:43:25;;;;;;;0.68;0.60;;;;;;;;;;7331921;19;162453;-16
2021/10/21 11:45:57;;;;;;;0.40;0.40;;;;;;;;;;7332604;19;153919;-17
2021/10/21 11:48:31;;;;;;;0.50;0.50;;;;;;;;;;7330949;19;153481;-15
2021/10/21 11:51:04;;;;;;;0.40;0.40;;;;;;;;;;7332920;19;161868;-17
2021/10/21 11:53:35;;;;;;;0.40;0.40;;;;;;;;;;7329005;19;162403;-14
2021/10/21 11:56:10;;;;;;;0.55;0.40;;;;;;;;;;7332502;19;154250;-15
2021/10/21 11:58:45;;;;;;;0.57;0.52;;;;;;;;;;7332873;19;153522;-16
2021/10/21 12:01:23;;;;;;;0.40;0.40;;;;;;;;;;7329001;19;161998;-15
2021/10/21 12:03:55;;;;;;;0.65;0.40;;;;;;;;;;7330393;19;162379;-17
2021/10/21 12:06:29;;;;;;;1.90;0.50;;;;;;;;;;7331282;19;154160;-14
2021/10/21 12:09:03;;;;;;;0.38;0.38;;;;;;;;;;7332176;19;153935;-16
2021/10/21 12:11:41;;;;;;;0.65;0.40;;;;;;;;;;7331632;19;161809;-18
2021/10/21 12:14:12;;;;;;;0.65;0.47;;;;;;;;;;7329332;19;162321;-16
2021/10/21 12:16:43;;;;;;;1.08;0.50;;;;;;;;;;7332350;19;153916;-15
2021/10/21 12:19:21;;;;;;;0.88;0.43;;;;;;;;;;7333442;19;153464;-13
2021/10/21 12:21:52;;;;;;;0.65;0.50;;;;;;;;;;7324258;19;161925;-15
2021/10/21 12:24:25;;;;;;;0.98;0.40;;;;;;;;;;7325450;19;162516;-15
2021/10/21 12:27:01;;;;;;;0.35;0.35;;;;;;;;;;7328919;19;153903;-13
2021/10/21 12:29:38;;;;;;;0.32;0.32;;;;;;;;;;7328379;19;153648;-14
2021/10/21 12:32:11;;;;;;;0.40;0.40;;;;;;;;;;7330378;19;161783;-16
2021/10/21 12:34:45;;;;;;;0.50;0.50;;;;;;;;;;7324331;19;162533;-15
2021/10/21 12:37:18;;;;;;;0.40;0.40;;;;;;;;;;7329667;19;153952;-13
2021/10/21 12:39:49;;;;;;;0.30;0.30;;;;;;;;;;7330736;19;153510;-17
2021/10/21 12:42:27;;;;;;;0.90;0.32;;;;;;;;;;7328752;19;163449;-15
2021/10/21 12:45:01;;;;;;;0.75;0.30;;;;;;;;;;7328896;19;162705;-16
2021/10/21 12:47:34;;;;;;;2.05;0.40;;;;;;;;;;7331350;19;154225;-13
2021/10/21 12:50:08;;;;;;;0.80;0.30;;;;;;;;;;7331527;19;153651;-14
2021/10/21 12:52:42;;;;;;;0.30;0.30;;;;;;;;;;7332655;19;161774;-16
2021/10/21 12:55:16;;;;;;;0.95;0.47;;;;;;;;;;7337184;19;162300;-13
2021/10/21 12:57:52;;;;;;;0.47;0.47;;;;;;;;;;7335542;19;154199;-13
2021/10/21 13:00:31;;;;;;;2.05;0.50;;;;;;;;;;7334998;19;153544;-12
2021/10/21 13:03:04;;;;;;;0.30;0.30;;;;;;;;;;7334389;19;162090;-14
2021/10/21 13:05:35;;;;;;;0.40;0.40;;;;;;;;;;7332598;19;162355;-15
2021/10/21 13:08:07;;;;;;;0.40;0.40;;;;;;;;;;7332364;19;153717;-15
2021/10/21 13:10:43;;;;;;;0.30;0.30;;;;;;;;;;7333655;19;153557;-13
2021/10/21 13:13:25;;;;;;;0.40;0.40;;;;;;;;;;7327501;19;161799;-13
2021/10/21 13:15:57;;;;;;;0.40;0.40;;;;;;;;;;7328901;19;162353;-13
2021/10/21 13:18:29;;;;;;;0.40;0.40;;;;;;;;;;7333063;19;154043;-16
2021/10/21 13:21:00;;;;;;;0.40;0.40;;;;;;;;;;7331101;19;153776;-15
2021/10/21 13:23:33;;;;;;;0.38;0.38;;;;;;;;;;7330149;19;161803;-13
2021/10/21 13:26:05;;;;;;;0.40;0.40;;;;;;;;;;7333757;19;162287;-13
2021/10/21 13:28:51;;;;;;;0.43;0.40;;;;;;;;;;7337250;19;153980;-16
2021/10/21 13:31:25;;;;;;;0.40;0.40;;;;;;;;;;7333342;19;153767;-13
2021/10/21 13:33:56;;;;;;;0.40;0.40;;;;;;;;;;7334127;19;161816;-16
2021/10/21 13:36:28;;;;;;;0.50;0.50;;;;;;;;;;7329902;19;162387;-13
2021/10/21 13:38:59;;;;;;;0.63;0.40;;;;;;;;;;7331385;19;153981;-16
2021/10/21 13:41:30;;;;;;;0.57;0.50;;;;;;;;;;7330735;19;153595;-15
2021/10/21 13:44:04;;;;;;;0.38;0.38;;;;;;;;;;7332992;19;161757;-12
2021/10/21 13:46:37;;;;;;;0.50;0.50;;;;;;;;;;7331371;19;162355;-17
2021/10/21 13:49:09;;;;;;;0.45;0.45;;;;;;;;;;7332255;19;154288;-16
2021/10/21 13:51:41;;;;;;;0.50;0.50;;;;;;;;;;7333442;19;153666;-21
2021/10/21 13:54:12;;;;;;;0.40;0.40;;;;;;;;;;7331915;19;161803;-14
2021/10/21 13:56:43;;;;;;;0.40;0.40;;;;;;;;;;7331712;19;162369;-16
2021/10/21 13:59:17;;;;;;;0.40;0.40;;;;;;;;;;7332992;19;154035;-14
2021/10/21 14:01:48;;;;;;;0.30;0.30;;;;;;;;;;7333063;19;153466;-15
2021/10/21 14:04:19;;;;;;;0.30;0.30;;;;;;;;;;7332515;19;162027;-13
2021/10/21 14:06:51;;;;;;;0.40;0.40;;;;;;;;;;7330708;19;162424;-13
2021/10/21 14:09:22;;;;;;;0.28;0.28;;;;;;;;;;7333017;19;154066;-13
2021/10/21 14:11:53;;;;;;;0.40;0.40;;;;;;;;;;7332122;19;153667;-13
2021/10/21 14:14:27;;;;;;;0.40;0.40;;;;;;;;;;7332449;19;161796;-15
2021/10/21 14:16:58;;;;;;;0.30;0.30;;;;;;;;;;7332324;19;162392;-18
2021/10/21 14:19:34;;;;;;;0.57;0.40;;;;;;;;;;7334573;19;154041;-14
2021/10/21 14:22:12;;;;;;;0.70;0.43;;;;;;;;;;7334254;19;153651;-14
2021/10/21 14:24:44;;;;;;;3.10;0.47;;;;;;;;;;7335450;19;162054;-13
2021/10/21 14:27:18;;;;;;;0.50;0.50;;;;;;;;;;7332900;19;162370;-16
2021/10/21 14:29:52;;;;;;;0.20;0.20;;;;;;;;;;7335362;19;153979;-13
2021/10/21 14:32:23;;;;;;;0.30;0.30;;;;;;;;;;7335163;19;153532;-14
2021/10/21 14:34:56;;;;;;;0.30;0.30;;;;;;;;;;7335119;19;162483;-14
2021/10/21 14:37:29;;;;;;;0.35;0.35;;;;;;;;;;7334768;19;162365;-16
2021/10/21 14:40:02;;;;;;;0.40;0.40;;;;;;;;;;7335127;19;154002;-15
2021/10/21 14:42:34;;;;;;;0.30;0.30;;;;;;;;;;7334762;19;153815;-13
2021/10/21 14:45:10;;;;;;;0.30;0.30;;;;;;;;;;7334991;19;161990;-15
2021/10/21 14:47:43;;;;;;;0.50;0.50;;;;;;;;;;7332420;19;162629;-15
2021/10/21 14:50:15;;;;;;;0.50;0.40;;;;;;;;;;7333745;19;153965;-15
2021/10/21 14:52:46;;;;;;;0.40;0.40;;;;;;;;;;7334549;19;153530;-15
2021/10/21 14:55:18;;;;;;;0.37;0.37;;;;;;;;;;7335882;19;162058;-16
2021/10/21 14:57:49;;;;;;;0.30;0.30;;;;;;;;;;7331383;19;162472;-16
2021/10/21 15:00:23;;;;;;;0.40;0.40;;;;;;;;;;7331775;19;153970;-16
2021/10/21 15:02:59;;;;;;;0.40;0.40;;;;;;;;;;7330451;19;153527;-15
2021/10/21 15:05:30;;;;;;;0.43;0.40;;;;;;;;;;7330592;19;162162;-14
2021/10/21 15:11:07;;;;;;;0.40;0.40;;;;;;;;;;7330542;19;154249;-15
2021/10/21 15:24:35;;;;;;;0.50;0.50;;;;;;;;;;7331082;19;153802;-14
2021/10/21 15:27:07;;;;;;;0.38;0.38;;;;;;;;;;7329055;19;161961;-13
2021/10/21 15:29:38;;;;;;;0.47;0.30;;;;;;;;;;7330450;19;162320;-14
2021/10/21 15:32:12;;;;;;;0.30;0.30;;;;;;;;;;7330737;19;153984;-15
2021/10/21 15:34:43;;;;;;;0.47;0.47;;;;;;;;;;7330561;19;153669;-16
2021/10/21 15:37:14;;;;;;;0.30;0.30;;;;;;;;;;7329994;19;161769;-17
2021/10/21 15:39:49;;;;;;;0.47;0.47;;;;;;;;;;7330025;19;162302;-17
2021/10/21 15:42:20;;;;;;;0.40;0.40;;;;;;;;;;7328925;19;154160;-14
2021/10/21 15:47:41;;;;;;;0.30;0.30;;;;;;;;;;7328268;19;161854;-15
2021/10/21 15:50:25;;;;;;;0.30;0.30;;;;;;;;;;7329387;19;162519;-16
2021/10/21 16:09:34;;;;;;;0.30;0.30;;;;;;;;;;7329162;19;161986;-13
2021/10/21 16:12:19;;;;;;;1.30;0.50;;;;;;;;;;7328062;19;162561;-14
2021/10/21 16:14:55;;;;;;;0.40;0.40;;;;;;;;;;7329457;19;154144;-13
2021/10/21 16:17:31;;;;;;;0.40;0.40;;;;;;;;;;7328145;19;153549;-15
2021/10/21 16:20:11;;;;;;;0.40;0.40;;;;;;;;;;7328880;19;161944;-13
2021/10/21 16:22:50;;;;;;;0.30;0.30;;;;;;;;;;7328581;19;162532;-15
2021/10/21 16:25:32;;;;;;;0.30;0.30;;;;;;;;;;7335760;19;154008;-16
2021/10/21 16:28:05;;;;;;;0.40;0.40;;;;;;;;;;7334459;19;153662;-14
2021/10/21 16:30:37;;;;;;;0.40;0.40;;;;;;;;;;7335776;19;161805;-15
2021/10/21 16:33:09;;;;;;;0.85;0.45;;;;;;;;;;7338467;19;162388;-14
2021/10/21 16:35:47;;;;;;;0.50;0.50;;;;;;;;;;7337720;19;154044;-14
2021/10/21 16:38:19;;;;;;;0.40;0.40;;;;;;;;;;7337553;19;153553;-16
2021/10/21 16:40:58;;;;;;;0.38;0.38;;;;;;;;;;7336655;19;161771;-15
2021/10/21 16:43:31;;;;;;;0.37;0.37;;;;;;;;;;7335658;19;162655;-14
2021/10/21 16:46:02;;;;;;;0.40;0.40;;;;;;;;;;7338605;19;154132;-15
2021/10/21 16:48:35;;;;;;;0.45;0.45;;;;;;;;;;7335564;19;154204;-16
2021/10/21 16:51:09;;;;;;;0.32;0.32;;;;;;;;;;7338338;19;161972;-16
2021/10/21 16:53:42;;;;;;;0.30;0.30;;;;;;;;;;7337014;19;162547;-16
2021/10/21 16:56:14;;;;;;;0.33;0.33;;;;;;;;;;7337868;19;154090;-14
2021/10/21 16:58:54;;;;;;;0.38;0.35;;;;;;;;;;7337459;19;154122;-15
2021/10/21 17:01:26;;;;;;;0.43;0.43;;;;;;;;;;7338208;19;161982;-15
2021/10/21 17:03:58;;;;;;;0.50;0.50;;;;;;;;;;7337857;19;162420;-16
2021/10/21 17:06:32;;;;;;;0.50;0.32;;;;;;;;;;7336769;19;154104;-15
2021/10/21 17:09:05;;;;;;;0.40;0.40;;;;;;;;;;7335490;19;153882;-15
2021/10/21 17:11:36;;;;;;;0.40;0.40;;;;;;;;;;7337347;19;161920;-16
2021/10/21 17:14:08;;;;;;;0.40;0.40;;;;;;;;;;7337613;19;162361;-15
2021/10/21 17:16:42;;;;;;;0.50;0.50;;;;;;;;;;7337523;19;154081;-14
2021/10/21 17:19:14;;;;;;;0.50;0.50;;;;;;;;;;7337436;19;153484;-15
2021/10/21 17:21:48;;;;;;;0.40;0.40;;;;;;;;;;7337370;19;161860;-17
2021/10/21 17:24:20;;;;;;;1.10;0.50;;;;;;;;;;7336423;19;163117;-14
2021/10/21 17:26:52;;;;;;;0.43;0.43;;;;;;;;;;7337670;19;154390;-15
2021/10/21 17:29:25;;;;;;;0.40;0.40;;;;;;;;;;7335014;19;153898;-13
2021/10/21 17:31:57;;;;;;;0.50;0.50;;;;;;;;;;7335762;19;161864;-14
2021/10/21 17:34:28;;;;;;;0.60;0.60;;;;;;;;;;7332379;19;162408;-14
2021/10/21 17:37:03;;;;;;;0.40;0.40;;;;;;;;;;7333799;19;154085;-16
2021/10/21 17:39:34;;;;;;;0.55;0.55;;;;;;;;;;7333299;19;153501;-14
2021/10/21 17:42:08;;;;;;;0.88;0.60;;;;;;;;;;7334834;19;161794;-16
2021/10/21 17:44:41;;;;;;;0.75;0.70;;;;;;;;;;7330869;19;162451;-13
2021/10/21 17:47:13;;;;;;;1.00;0.40;;;;;;;;;;7329075;19;154111;-14
2021/10/21 17:49:44;;;;;;;0.65;0.63;;;;;;;;;;7331068;19;153644;-14
2021/10/21 17:52:19;;;;;;;0.60;0.60;;;;;;;;;;7331865;19;161861;-14
2021/10/21 17:54:50;;;;;;;0.85;0.73;;;;;;;;;;7332904;19;164122;-12
2021/10/21 17:57:22;;;;;;;0.80;0.80;;;;;;;;;;7333108;19;154117;-16
2021/10/21 17:59:53;;;;;;;1.90;0.82;;;;;;;;;;7333133;19;153522;-14
2021/10/21 18:02:24;;;;;;;0.55;0.55;;;;;;;;;;7332709;19;161892;-14
2021/10/21 18:04:57;;;;;;;0.57;0.57;;;;;;;;;;7332126;19;162647;-14
2021/10/21 18:07:31;;;;;;;0.88;0.88;;;;;;;;;;7333136;19;154073;-13
2021/10/21 18:10:02;;;;;;;0.90;0.90;;;;;;;;;;7330516;19;153518;-15
2021/10/21 18:12:34;;;;;;;0.77;0.77;;;;;;;;;;7330024;19;161862;-17
2021/10/21 18:15:05;;;;;;;0.77;0.77;;;;;;;;;;7332081;19;162374;-15
2021/10/21 18:17:38;;;;;;;0.73;0.73;;;;;;;;;;7331690;19;154720;-13
2021/10/21 18:20:10;;;;;;;0.77;0.77;;;;;;;;;;7332553;19;153551;-17
2021/10/21 18:22:44;;;;;;;0.80;0.80;;;;;;;;;;7332212;19;161828;-16
2021/10/21 18:25:16;;;;;;;0.95;0.95;;;;;;;;;;7332203;19;162352;-16
2021/10/21 18:27:49;;;;;;;0.77;0.77;;;;;;;;;;7332567;19;154117;-14
2021/10/21 18:30:20;;;;;;;0.63;0.63;;;;;;;;;;7329199;19;153610;-13
2021/10/21 18:32:53;;;;;;;0.90;0.90;;;;;;;;;;7331706;19;161871;-16
2021/10/21 18:35:26;;;;;;;0.80;0.80;;;;;;;;;;7330427;19;163022;-14
2021/10/21 18:38:00;;;;;;;0.73;0.73;;;;;;;;;;7331487;19;153960;-15
2021/10/21 18:40:33;;;;;;;0.98;0.70;;;;;;;;;;7331592;19;153587;-13
2021/10/21 18:43:05;;;;;;;0.80;0.80;;;;;;;;;;7331307;19;161935;-15
2021/10/21 18:45:36;;;;;;;0.80;0.80;;;;;;;;;;7330721;19;162510;-14
2021/10/21 18:48:08;;;;;;;0.80;0.80;;;;;;;;;;7330713;19;154044;-17
2021/10/21 18:50:40;;;;;;;0.60;0.60;;;;;;;;;;7328668;19;153324;-16
2021/10/21 18:53:14;;;;;;;0.80;0.80;;;;;;;;;;7330968;19;161874;-17
2021/10/21 18:55:47;;;;;;;0.60;0.60;;;;;;;;;;7329845;19;162699;-13
2021/10/21 18:58:18;;;;;;;0.70;0.70;;;;;;;;;;7333608;19;153972;-16
2021/10/21 19:00:50;;;;;;;0.70;0.70;;;;;;;;;;7335108;19;153594;-15
2021/10/21 19:03:21;;;;;;;0.70;0.70;;;;;;;;;;7330933;19;161861;-15
2021/10/21 19:05:53;;;;;;;0.60;0.60;;;;;;;;;;7330733;19;162365;-18
2021/10/21 19:08:27;;;;;;;0.73;0.73;;;;;;;;;;7331197;19;154245;-16
2021/10/21 19:10:59;;;;;;;0.80;0.80;;;;;;;;;;7326924;19;153520;-14
2021/10/21 19:13:33;;;;;;;0.65;0.65;;;;;;;;;;7328189;19;161719;-15
2021/10/21 19:16:05;;;;;;;0.60;0.60;;;;;;;;;;7330377;19;162451;-14
2021/10/21 19:18:37;;;;;;;0.60;0.60;;;;;;;;;;7330931;19;153979;-14
2021/10/21 19:21:08;;;;;;;0.85;0.85;;;;;;;;;;7330664;19;153542;-16
2021/10/21 19:23:42;;;;;;;0.60;0.60;;;;;;;;;;7329479;19;161895;-14
2021/10/21 19:26:14;;;;;;;0.60;0.60;;;;;;;;;;7329745;19;162347;-13
2021/10/21 19:28:46;;;;;;;0.80;0.80;;;;;;;;;;7330084;19;153995;-14
2021/10/21 19:31:19;;;;;;;0.80;0.80;;;;;;;;;;7329768;19;153525;-14
2021/10/21 19:33:51;;;;;;;0.70;0.70;;;;;;;;;;7329467;19;161820;-17
2021/10/21 19:36:22;;;;;;;0.60;0.60;;;;;;;;;;7329388;19;162266;-13
2021/10/21 19:38:56;;;;;;;0.70;0.70;;;;;;;;;;7330119;19;153960;-17
2021/10/21 19:41:27;;;;;;;0.60;0.60;;;;;;;;;;7330335;19;153479;-15
2021/10/21 19:44:00;;;;;;;0.70;0.70;;;;;;;;;;7332162;19;162011;-17
2021/10/21 19:46:31;;;;;;;0.77;0.77;;;;;;;;;;7330755;19;162363;-17
2021/10/21 19:49:06;;;;;;;1.08;1.08;;;;;;;;;;7331732;19;153985;-14
2021/10/21 19:51:39;;;;;;;1.10;1.00;;;;;;;;;;7333397;19;153545;-16
2021/10/21 19:54:13;;;;;;;0.90;0.90;;;;;;;;;;7329134;19;162019;-15
2021/10/21 19:56:44;;;;;;;0.70;0.70;;;;;;;;;;7328985;19;162383;-14
2021/10/21 19:59:17;;;;;;;1.60;1.50;;;;;;;;;;7328853;19;154212;-17
2021/10/21 20:01:49;;;;;;;1.10;1.10;;;;;;;;;;7329770;19;153772;-17
2021/10/21 20:04:20;;;;;;;1.67;1.58;;;;;;;;;;7329114;19;161964;-14
2021/10/21 20:06:52;;;;;;;14.77;13.38;;;;;;;;;;7328887;19;162611;-16
2021/10/21 20:09:27;;;;;;;5.63;5.03;;;;;;;;;;7328738;19;153967;-17
2021/10/21 20:12:02;;;;;;;5.25;4.75;;;;;;;;;;7328551;19;153573;-20
2021/10/21 20:14:34;;;;;;;6.47;5.82;;;;;;;;;;7328446;19;161979;-16
2021/10/21 20:17:07;;;;;;;6.72;6.07;;;;;;;;;;7328363;19;162414;-17
2021/10/21 20:19:39;;;;;;;5.50;5.10;;;;;;;;;;7331105;19;154134;-18
2021/10/21 20:22:12;;;;;;;6.00;5.50;;;;;;;;;;7330939;19;153518;-16
2021/10/21 20:24:46;;;;;;;6.22;5.72;;;;;;;;;;7331572;19;162219;-15
2021/10/21 20:27:17;;;;;;;6.07;5.53;;;;;;;;;;7331366;19;162326;-16
2021/10/21 20:29:49;;;;;;;6.53;5.97;;;;;;;;;;7330919;19;153993;-17
2021/10/21 20:32:20;;;;;;;6.10;5.60;;;;;;;;;;7331369;19;153816;-12
2021/10/21 20:34:51;;;;;;;5.97;5.57;;;;;;;;;;7330777;19;161564;-17
2021/10/21 20:37:23;;;;;;;5.95;5.45;;;;;;;;;;7331050;19;162327;-14
2021/10/21 20:39:57;;;;;;;6.28;5.78;;;;;;;;;;7331603;19;153971;-13
2021/10/21 20:42:28;;;;;;;6.88;6.28;;;;;;;;;;7326346;19;153817;-16
2021/10/21 20:45:02;;;;;;;7.20;6.60;;;;;;;;;;7330017;19;161820;-13
2021/10/21 20:47:34;;;;;;;6.50;5.90;;;;;;;;;;7325780;19;162355;-13
2021/10/21 20:50:12;;;;;;;7.45;6.85;;;;;;;;;;7326276;19;154178;-16
2021/10/21 20:52:44;;;;;;;7.25;6.55;;;;;;;;;;7328402;19;153652;-13
2021/10/21 20:55:18;;;;;;;7.38;6.78;;;;;;;;;;7324625;19;161845;-15
2021/10/21 20:57:50;;;;;;;6.90;6.40;;;;;;;;;;7329747;19;162577;-13
2021/10/21 21:00:21;;;;;;;6.60;6.10;;;;;;;;;;7326392;19;153989;-14
2021/10/21 21:02:54;;;;;;;6.28;5.78;;;;;;;;;;7326131;19;153492;-13
2021/10/21 21:05:26;;;;;;;6.57;5.97;;;;;;;;;;7322116;19;162402;-16
2021/10/21 21:07:57;;;;;;;6.30;5.85;;;;;;;;;;7328925;19;162367;-12
2021/10/21 21:10:31;;;;;;;6.60;6.10;;;;;;;;;;7333248;19;154100;-17
2021/10/21 21:13:04;;;;;;;6.60;6.10;;;;;;;;;;7336178;19;153761;-13
2021/10/21 21:15:36;;;;;;;5.97;5.57;;;;;;;;;;7336208;19;162104;-12
2021/10/21 21:18:08;;;;;;;6.10;5.68;;;;;;;;;;7334312;19;162687;-16
2021/10/21 21:20:43;;;;;;;6.03;5.60;;;;;;;;;;7336951;19;154145;-13
2021/10/21 21:23:15;;;;;;;6.53;6.03;;;;;;;;;;7331516;19;153635;-13
2021/10/21 21:25:49;;;;;;;;;;;;;;;;;;7333843;19;161848;-16
2021/10/21 21:28:21;;;;;;;6.43;5.90;;;;;;;;;;7329571;19;162696;-12
2021/10/21 21:30:53;;;;;;;6.10;5.60;;;;;;;;;;7326544;19;154412;-15
2021/10/21 21:33:25;;;;;;;5.97;5.50;;;;;;;;;;7335493;19;153816;-14
2021/10/21 21:35:56;;;;;;;5.82;5.32;;;;;;;;;;7335249;19;162030;-13
2021/10/21 21:38:27;;;;;;;6.07;5.57;;;;;;;;;;7333161;19;162654;-14
2021/10/21 21:41:01;;;;;;;6.47;5.93;;;;;;;;;;7333427;19;153941;-13
2021/10/21 21:43:33;;;;;;;6.35;5.85;;;;;;;;;;7334555;19;153592;-12
2021/10/21 21:46:04;;;;;;;6.25;5.75;;;;;;;;;;7334004;19;161819;-14
2021/10/21 21:48:35;;;;;;;5.70;5.30;;;;;;;;;;7334734;19;162525;-14
2021/10/21 21:51:07;;;;;;;6.25;5.75;;;;;;;;;;7333652;19;154160;-12
2021/10/21 21:53:38;;;;;;;5.97;5.55;;;;;;;;;;7335115;19;153910;-16
2021/10/21 21:56:12;;;;;;;5.75;5.35;;;;;;;;;;7333545;19;162040;-14
2021/10/21 21:58:44;;;;;;;5.85;5.35;;;;;;;;;;7335823;19;162126;-13
2021/10/21 22:01:15;;;;;;;5.50;5.10;;;;;;;;;;7334395;19;153948;-17
2021/10/21 22:03:46;;;;;;;5.70;5.30;;;;;;;;;;7334248;19;153932;-16
2021/10/21 22:06:18;;;;;;;5.65;5.25;;;;;;;;;;7334462;19;161960;-13
2021/10/21 22:08:49;;;;;;;5.22;4.90;;;;;;;;;;7335454;19;162729;-14
2021/10/21 22:11:23;;;;;;;5.20;4.80;;;;;;;;;;7332412;19;153941;-12
2021/10/21 22:13:57;;;;;;;4.85;4.47;;;;;;;;;;7331700;19;153530;-14
2021/10/21 22:16:29;;;;;;;5.40;5.00;;;;;;;;;;7333087;19;162055;-16
2021/10/21 22:19:00;;;;;;;5.53;5.10;;;;;;;;;;7328610;19;162616;-14
2021/10/21 22:21:31;;;;;;;5.63;5.15;;;;;;;;;;7334065;19;154601;-17
2021/10/21 22:24:03;;;;;;;5.20;4.75;;;;;;;;;;7328962;19;153502;-14
2021/10/21 22:26:36;;;;;;;5.63;5.13;;;;;;;;;;7330315;19;161793;-16
2021/10/21 22:29:08;;;;;;;4.93;4.53;;;;;;;;;;7328529;19;162607;-15
2021/10/21 22:31:39;;;;;;;5.22;4.82;;;;;;;;;;7330483;19;154004;-15
2021/10/21 22:34:12;;;;;;;5.20;4.90;;;;;;;;;;7331188;19;153597;-13
2021/10/21 22:36:43;;;;;;;5.25;4.85;;;;;;;;;;7333591;19;161822;-17
2021/10/21 22:39:14;;;;;;;5.20;4.82;;;;;;;;;;7327823;19;162413;-13
2021/10/21 22:42:08;;;;;;;4.95;4.55;;;;;;;;;;7328874;19;154033;-15
2021/10/21 22:44:40;;;;;;;5.05;4.72;;;;;;;;;;7334325;19;153718;-13
2021/10/21 22:47:12;;;;;;;5.15;4.75;;;;;;;;;;7332114;19;161774;-16
2021/10/21 22:49:43;;;;;;;4.55;4.25;;;;;;;;;;7332809;19;162460;-13
2021/10/21 22:52:15;;;;;;;5.03;4.63;;;;;;;;;;7331837;19;154135;-15
2021/10/21 22:54:46;;;;;;;4.63;4.32;;;;;;;;;;7333149;19;153671;-15
2021/10/21 22:57:23;;;;;;;5.00;4.60;;;;;;;;;;7332328;19;162554;-16
2021/10/21 22:59:57;;;;;;;5.20;4.80;;;;;;;;;;7332590;19;162119;-15
2021/10/21 23:02:30;;;;;;;4.68;4.38;;;;;;;;;;7332987;19;154188;-15
2021/10/21 23:05:02;;;;;;;5.10;4.70;;;;;;;;;;7333024;19;153535;-16
2021/10/21 23:07:34;;;;;;;4.50;4.20;;;;;;;;;;7332659;19;162080;-14
2021/10/21 23:10:06;;;;;;;4.00;3.80;;;;;;;;;;7332268;19;162332;-13
2021/10/21 23:12:40;;;;;;;4.40;4.10;;;;;;;;;;7328095;19;153956;-15
2021/10/21 23:15:11;;;;;;;4.38;4.07;;;;;;;;;;7326476;19;155567;-12
2021/10/21 23:17:43;;;;;;;4.10;3.80;;;;;;;;;;7328336;19;161771;-16
2021/10/21 23:20:15;;;;;;;4.50;4.20;;;;;;;;;;7324419;19;162370;-13
2021/10/21 23:22:47;;;;;;;4.10;3.80;;;;;;;;;;7332557;19;154128;-12
2021/10/21 23:25:18;;;;;;;4.28;3.97;;;;;;;;;;7328873;19;153592;-15
2021/10/21 23:27:53;;;;;;;4.00;3.70;;;;;;;;;;7328427;19;162142;-13
2021/10/21 23:30:24;;;;;;;3.97;3.67;;;;;;;;;;7328071;19;162348;-13
2021/10/21 23:32:55;;;;;;;4.30;4.00;;;;;;;;;;7326994;19;154316;-13
2021/10/21 23:35:27;;;;;;;4.03;3.72;;;;;;;;;;7331327;19;153500;-15
2021/10/21 23:37:59;;;;;;;3.70;3.40;;;;;;;;;;7328642;19;161983;-13
2021/10/21 23:40:30;;;;;;;4.10;3.80;;;;;;;;;;7327639;19;162570;-14
2021/10/21 23:43:04;;;;;;;3.55;3.33;;;;;;;;;;7328903;19;154042;-14
2021/10/21 23:45:37;;;;;;;3.90;3.60;;;;;;;;;;7330646;19;153584;-15
2021/10/21 23:48:09;;;;;;;3.70;3.50;;;;;;;;;;7330122;19;162039;-15
2021/10/21 23:50:40;;;;;;;3.70;3.50;;;;;;;;;;7330135;19;162617;-15
2021/10/21 23:53:12;;;;;;;3.80;3.50;;;;;;;;;;7327506;19;154011;-16
2021/10/21 23:55:44;;;;;;;3.63;3.42;;;;;;;;;;7326279;19;153676;-15
2021/10/21 23:58:18;;;;;;;3.60;3.37;;;;;;;;;;7327960;19;162301;-12
